sensor_id;sensor_type;location;lat;lon;timestamp;temperature;humidity
20929;DHT22;21895;47.072;15.132;2022-11-27T00:01:30;0.40;99.90
20929;DHT22;21895;47.072;15.132;2022-11-27T00:03:58;0.40;99.90
20929;DHT22;21895;47.072;15.132;2022-11-27T00:06:26;0.40;99.90
20929;DHT22;21895;47.072;15.132;2022-11-27T00:08:58;0.30;99.90
20929;DHT22;21895;47.072;15.132;2022-11-27T00:11:27;0.10;99.90
20929;DHT22;21895;47.072;15.132;2022-11-27T00:13:54;0.00;99.90
20929;DHT22;21895;47.072;15.132;2022-11-27T00:16:22;0.10;99.90
20929;DHT22;21895;47.072;15.132;2022-11-27T00:18:49;0.10;99.90
20929;DHT22;21895;47.072;15.132;2022-11-27T00:21:20;0.10;99.90
20929;DHT22;21895;47.072;15.132;2022-11-27T00:23:50;0.20;99.90
20929;DHT22;21895;47.072;15.132;2022-11-27T00:26:18;0.10;99.90
20929;DHT22;21895;47.072;15.132;2022-11-27T00:28:45;0.10;99.90
20929;DHT22;21895;47.072;15.132;2022-11-27T00:31:17;0.10;99.90
20929;DHT22;21895;47.072;15.132;2022-11-27T00:33:45;0.10;99.90
20929;DHT22;21895;47.072;15.132;2022-11-27T00:36:13;0.00;99.90
20929;DHT22;21895;47.072;15.132;2022-11-27T00:38:40;0.00;99.90
20929;DHT22;21895;47.072;15.132;2022-11-27T00:41:15;-0.20;99.90
20929;DHT22;21895;47.072;15.132;2022-11-27T00:43:42;-0.30;99.90
20929;DHT22;21895;47.072;15.132;2022-11-27T00:46:15;-0.20;99.90
20929;DHT22;21895;47.072;15.132;2022-11-27T00:48:43;-0.10;99.90
20929;DHT22;21895;47.072;15.132;2022-11-27T00:51:16;0.00;99.90
20929;DHT22;21895;47.072;15.132;2022-11-27T00:53:45;0.00;99.90
20929;DHT22;21895;47.072;15.132;2022-11-27T00:56:23;0.00;99.90
20929;DHT22;21895;47.072;15.132;2022-11-27T00:58:52;-0.10;99.90
20929;DHT22;21895;47.072;15.132;2022-11-27T01:01:25;0.00;99.90
20929;DHT22;21895;47.072;15.132;2022-11-27T01:03:54;-0.30;99.90
20929;DHT22;21895;47.072;15.132;2022-11-27T01:06:25;-0.40;99.90
20929;DHT22;21895;47.072;15.132;2022-11-27T01:08:53;-0.40;99.90
20929;DHT22;21895;47.072;15.132;2022-11-27T01:11:24;-0.50;99.90
20929;DHT22;21895;47.072;15.132;2022-11-27T01:13:55;-0.30;99.90
20929;DHT22;21895;47.072;15.132;2022-11-27T01:16:26;-0.30;99.90
20929;DHT22;21895;47.072;15.132;2022-11-27T01:18:55;-0.20;99.90
20929;DHT22;21895;47.072;15.132;2022-11-27T01:21:23;-0.20;99.90
20929;DHT22;21895;47.072;15.132;2022-11-27T01:23:50;-0.20;99.90
20929;DHT22;21895;47.072;15.132;2022-11-27T01:26:19;-0.20;99.90
20929;DHT22;21895;47.072;15.132;2022-11-27T01:28:45;-0.30;99.90
20929;DHT22;21895;47.072;15.132;2022-11-27T01:31:18;-0.40;99.90
20929;DHT22;21895;47.072;15.132;2022-11-27T01:33:51;-0.40;99.90
20929;DHT22;21895;47.072;15.132;2022-11-27T01:36:23;-0.30;99.90
20929;DHT22;21895;47.072;15.132;2022-11-27T01:38:50;-0.30;99.90
20929;DHT22;21895;47.072;15.132;2022-11-27T01:41:21;-0.30;99.90
20929;DHT22;21895;47.072;15.132;2022-11-27T01:43:53;-0.30;99.90
20929;DHT22;21895;47.072;15.132;2022-11-27T01:46:40;-0.30;99.90
20929;DHT22;21895;47.072;15.132;2022-11-27T01:49:34;-0.40;99.90
20929;DHT22;21895;47.072;15.132;2022-11-27T01:52:12;-0.50;99.90
20929;DHT22;21895;47.072;15.132;2022-11-27T01:55:00;-0.60;99.90
20929;DHT22;21895;47.072;15.132;2022-11-27T01:57:48;-0.50;99.90
20929;DHT22;21895;47.072;15.132;2022-11-27T02:00:20;-0.50;99.90
20929;DHT22;21895;47.072;15.132;2022-11-27T02:02:47;-0.60;99.90
20929;DHT22;21895;47.072;15.132;2022-11-27T02:05:18;-0.50;99.90
20929;DHT22;21895;47.072;15.132;2022-11-27T02:07:47;-0.40;99.90
20929;DHT22;21895;47.072;15.132;2022-11-27T02:10:15;-0.60;99.90
20929;DHT22;21895;47.072;15.132;2022-11-27T02:12:59;-0.70;99.90
20929;DHT22;21895;47.072;15.132;2022-11-27T02:16:04;-0.80;99.90
20929;DHT22;21895;47.072;15.132;2022-11-27T02:31:05;-0.60;99.90
20929;DHT22;21895;47.072;15.132;2022-11-27T02:33:44;-0.70;99.90
20929;DHT22;21895;47.072;15.132;2022-11-27T02:36:22;-0.90;99.90
20929;DHT22;21895;47.072;15.132;2022-11-27T02:39:04;-0.90;99.90
20929;DHT22;21895;47.072;15.132;2022-11-27T02:41:49;-0.80;99.90
20929;DHT22;21895;47.072;15.132;2022-11-27T02:44:22;-0.80;99.90
20929;DHT22;21895;47.072;15.132;2022-11-27T02:46:54;-0.80;99.90
20929;DHT22;21895;47.072;15.132;2022-11-27T02:49:21;-1.00;99.90
20929;DHT22;21895;47.072;15.132;2022-11-27T02:51:54;-1.00;99.90
20929;DHT22;21895;47.072;15.132;2022-11-27T02:54:28;-0.90;99.90
20929;DHT22;21895;47.072;15.132;2022-11-27T02:56:58;-0.90;99.90
20929;DHT22;21895;47.072;15.132;2022-11-27T02:59:30;-0.90;99.90
20929;DHT22;21895;47.072;15.132;2022-11-27T03:02:04;-0.70;99.90
20929;DHT22;21895;47.072;15.132;2022-11-27T03:04:42;-0.60;99.90
20929;DHT22;21895;47.072;15.132;2022-11-27T03:08:59;-0.50;99.90
20929;DHT22;21895;47.072;15.132;2022-11-27T03:11:33;-0.90;99.90
20929;DHT22;21895;47.072;15.132;2022-11-27T03:14:05;-0.90;99.90
20929;DHT22;21895;47.072;15.132;2022-11-27T03:16:42;-0.80;99.90
20929;DHT22;21895;47.072;15.132;2022-11-27T03:20:12;-1.00;99.90
20929;DHT22;21895;47.072;15.132;2022-11-27T03:22:54;-1.10;99.90
20929;DHT22;21895;47.072;15.132;2022-11-27T03:25:22;-0.80;99.90
20929;DHT22;21895;47.072;15.132;2022-11-27T03:28:00;-0.80;99.90
20929;DHT22;21895;47.072;15.132;2022-11-27T03:30:28;-1.00;99.90
20929;DHT22;21895;47.072;15.132;2022-11-27T03:32:55;-1.30;99.90
20929;DHT22;21895;47.072;15.132;2022-11-27T03:35:24;-1.30;99.90
20929;DHT22;21895;47.072;15.132;2022-11-27T03:37:52;-1.10;99.90
20929;DHT22;21895;47.072;15.132;2022-11-27T03:40:29;-1.00;99.90
20929;DHT22;21895;47.072;15.132;2022-11-27T03:43:17;-1.10;99.90
20929;DHT22;21895;47.072;15.132;2022-11-27T03:45:59;-1.00;99.90
20929;DHT22;21895;47.072;15.132;2022-11-27T03:57:18;-0.70;99.90
20929;DHT22;21895;47.072;15.132;2022-11-27T03:59:55;-0.90;99.90
20929;DHT22;21895;47.072;15.132;2022-11-27T04:02:39;-0.70;99.90
20929;DHT22;21895;47.072;15.132;2022-11-27T04:05:08;-0.60;99.90
20929;DHT22;21895;47.072;15.132;2022-11-27T04:07:35;-0.80;99.90
20929;DHT22;21895;47.072;15.132;2022-11-27T04:10:03;-0.70;99.90
20929;DHT22;21895;47.072;15.132;2022-11-27T04:12:30;-0.80;99.90
20929;DHT22;21895;47.072;15.132;2022-11-27T04:14:57;-0.80;99.90
20929;DHT22;21895;47.072;15.132;2022-11-27T04:17:24;-1.00;99.90
20929;DHT22;21895;47.072;15.132;2022-11-27T04:19:50;-1.10;99.90
20929;DHT22;21895;47.072;15.132;2022-11-27T04:22:17;-1.20;99.90
20929;DHT22;21895;47.072;15.132;2022-11-27T04:24:44;-1.30;99.90
20929;DHT22;21895;47.072;15.132;2022-11-27T04:27:10;-1.20;99.90
20929;DHT22;21895;47.072;15.132;2022-11-27T04:29:37;-1.20;99.90
20929;DHT22;21895;47.072;15.132;2022-11-27T04:32:04;-0.90;99.90
20929;DHT22;21895;47.072;15.132;2022-11-27T04:34:31;-0.90;99.90
20929;DHT22;21895;47.072;15.132;2022-11-27T04:36:58;-0.80;99.90
20929;DHT22;21895;47.072;15.132;2022-11-27T04:39:25;-0.70;99.90
20929;DHT22;21895;47.072;15.132;2022-11-27T04:41:52;-0.60;99.90
20929;DHT22;21895;47.072;15.132;2022-11-27T04:44:18;-0.60;99.90
20929;DHT22;21895;47.072;15.132;2022-11-27T04:46:48;-0.80;99.90
20929;DHT22;21895;47.072;15.132;2022-11-27T04:49:15;-1.10;99.90
20929;DHT22;21895;47.072;15.132;2022-11-27T04:51:42;-1.00;99.90
20929;DHT22;21895;47.072;15.132;2022-11-27T04:54:08;-1.00;99.90
20929;DHT22;21895;47.072;15.132;2022-11-27T04:56:35;-1.00;99.90
20929;DHT22;21895;47.072;15.132;2022-11-27T04:59:02;-1.00;99.90
20929;DHT22;21895;47.072;15.132;2022-11-27T05:01:29;-1.00;99.90
20929;DHT22;21895;47.072;15.132;2022-11-27T05:03:55;-1.00;99.90
20929;DHT22;21895;47.072;15.132;2022-11-27T05:06:22;-0.70;99.90
20929;DHT22;21895;47.072;15.132;2022-11-27T05:08:49;-0.60;99.90
20929;DHT22;21895;47.072;15.132;2022-11-27T05:11:16;-0.50;99.90
20929;DHT22;21895;47.072;15.132;2022-11-27T05:13:43;-0.40;99.90
20929;DHT22;21895;47.072;15.132;2022-11-27T05:16:10;-0.40;99.90
20929;DHT22;21895;47.072;15.132;2022-11-27T05:18:36;-0.40;99.90
20929;DHT22;21895;47.072;15.132;2022-11-27T05:21:05;-0.60;99.90
20929;DHT22;21895;47.072;15.132;2022-11-27T05:23:33;-0.60;99.90
20929;DHT22;21895;47.072;15.132;2022-11-27T05:26:01;-0.70;99.90
20929;DHT22;21895;47.072;15.132;2022-11-27T05:28:28;-1.00;99.90
20929;DHT22;21895;47.072;15.132;2022-11-27T05:30:54;-1.30;99.90
20929;DHT22;21895;47.072;15.132;2022-11-27T05:33:21;-1.40;99.90
20929;DHT22;21895;47.072;15.132;2022-11-27T05:35:47;-1.40;99.90
20929;DHT22;21895;47.072;15.132;2022-11-27T05:38:14;-1.40;99.90
20929;DHT22;21895;47.072;15.132;2022-11-27T05:40:40;-1.30;99.90
20929;DHT22;21895;47.072;15.132;2022-11-27T05:43:07;-1.20;99.90
20929;DHT22;21895;47.072;15.132;2022-11-27T05:45:33;-1.20;99.90
20929;DHT22;21895;47.072;15.132;2022-11-27T05:48:02;-1.30;99.90
20929;DHT22;21895;47.072;15.132;2022-11-27T05:50:28;-1.40;99.90
20929;DHT22;21895;47.072;15.132;2022-11-27T05:52:55;-1.40;99.90
20929;DHT22;21895;47.072;15.132;2022-11-27T05:55:22;-1.30;99.90
20929;DHT22;21895;47.072;15.132;2022-11-27T05:57:48;-1.30;99.90
20929;DHT22;21895;47.072;15.132;2022-11-27T06:00:15;-1.20;99.90
20929;DHT22;21895;47.072;15.132;2022-11-27T06:02:41;-1.20;99.90
20929;DHT22;21895;47.072;15.132;2022-11-27T06:05:08;-1.20;99.90
20929;DHT22;21895;47.072;15.132;2022-11-27T06:07:35;-1.20;99.90
20929;DHT22;21895;47.072;15.132;2022-11-27T06:10:01;-1.20;99.90
20929;DHT22;21895;47.072;15.132;2022-11-27T06:12:31;-1.40;99.90
20929;DHT22;21895;47.072;15.132;2022-11-27T06:14:57;-1.40;99.90
20929;DHT22;21895;47.072;15.132;2022-11-27T06:17:24;-1.50;99.90
20929;DHT22;21895;47.072;15.132;2022-11-27T06:19:50;-1.70;99.90
20929;DHT22;21895;47.072;15.132;2022-11-27T06:22:17;-1.70;99.90
20929;DHT22;21895;47.072;15.132;2022-11-27T06:24:43;-1.60;99.90
20929;DHT22;21895;47.072;15.132;2022-11-27T06:27:10;-1.50;99.90
20929;DHT22;21895;47.072;15.132;2022-11-27T06:29:37;-1.70;99.90
20929;DHT22;21895;47.072;15.132;2022-11-27T06:32:04;-1.60;99.90
20929;DHT22;21895;47.072;15.132;2022-11-27T06:34:31;-1.60;99.90
20929;DHT22;21895;47.072;15.132;2022-11-27T06:36:58;-1.70;99.90
20929;DHT22;21895;47.072;15.132;2022-11-27T06:39:24;-1.50;99.90
20929;DHT22;21895;47.072;15.132;2022-11-27T06:41:51;-1.50;99.90
20929;DHT22;21895;47.072;15.132;2022-11-27T06:44:17;-1.50;99.90
20929;DHT22;21895;47.072;15.132;2022-11-27T06:46:44;-1.30;99.90
20929;DHT22;21895;47.072;15.132;2022-11-27T06:49:10;-1.20;99.90
20929;DHT22;21895;47.072;15.132;2022-11-27T06:51:37;-1.30;99.90
20929;DHT22;21895;47.072;15.132;2022-11-27T06:54:03;-1.40;99.90
20929;DHT22;21895;47.072;15.132;2022-11-27T06:56:30;-1.40;99.90
20929;DHT22;21895;47.072;15.132;2022-11-27T06:58:59;-1.50;99.90
20929;DHT22;21895;47.072;15.132;2022-11-27T07:01:28;-1.50;99.90
20929;DHT22;21895;47.072;15.132;2022-11-27T07:03:56;-1.30;99.90
20929;DHT22;21895;47.072;15.132;2022-11-27T07:06:24;-1.10;99.90
20929;DHT22;21895;47.072;15.132;2022-11-27T07:08:52;-0.90;99.90
20929;DHT22;21895;47.072;15.132;2022-11-27T07:11:22;-0.80;99.90
20929;DHT22;21895;47.072;15.132;2022-11-27T07:13:52;-0.80;99.90
20929;DHT22;21895;47.072;15.132;2022-11-27T07:16:21;-0.60;99.90
20929;DHT22;21895;47.072;15.132;2022-11-27T07:18:52;-0.50;99.90
20929;DHT22;21895;47.072;15.132;2022-11-27T07:21:20;-0.40;99.90
20929;DHT22;21895;47.072;15.132;2022-11-27T07:23:47;-0.20;99.90
20929;DHT22;21895;47.072;15.132;2022-11-27T07:26:16;-0.20;99.90
20929;DHT22;21895;47.072;15.132;2022-11-27T07:28:46;-0.10;99.90
20929;DHT22;21895;47.072;15.132;2022-11-27T07:31:16;-0.10;99.90
20929;DHT22;21895;47.072;15.132;2022-11-27T07:33:47;0.00;99.90
20929;DHT22;21895;47.072;15.132;2022-11-27T07:36:17;0.20;99.90
20929;DHT22;21895;47.072;15.132;2022-11-27T07:38:45;0.40;99.90
20929;DHT22;21895;47.072;15.132;2022-11-27T07:41:14;0.50;99.90
20929;DHT22;21895;47.072;15.132;2022-11-27T07:43:42;0.70;99.90
20929;DHT22;21895;47.072;15.132;2022-11-27T07:46:20;0.70;99.90
20929;DHT22;21895;47.072;15.132;2022-11-27T07:48:49;0.90;99.90
20929;DHT22;21895;47.072;15.132;2022-11-27T07:51:18;1.10;99.90
20929;DHT22;21895;47.072;15.132;2022-11-27T07:53:46;1.30;99.90
20929;DHT22;21895;47.072;15.132;2022-11-27T07:56:14;1.40;99.90
20929;DHT22;21895;47.072;15.132;2022-11-27T07:58:41;1.50;99.90
20929;DHT22;21895;47.072;15.132;2022-11-27T08:01:10;1.60;99.90
20929;DHT22;21895;47.072;15.132;2022-11-27T08:03:38;1.70;99.90
20929;DHT22;21895;47.072;15.132;2022-11-27T08:06:11;1.80;99.90
20929;DHT22;21895;47.072;15.132;2022-11-27T08:08:49;1.90;99.90
20929;DHT22;21895;47.072;15.132;2022-11-27T08:11:25;2.00;99.90
20929;DHT22;21895;47.072;15.132;2022-11-27T08:13:58;2.10;99.90
20929;DHT22;21895;47.072;15.132;2022-11-27T08:16:27;2.30;99.90
20929;DHT22;21895;47.072;15.132;2022-11-27T08:18:54;2.40;99.90
20929;DHT22;21895;47.072;15.132;2022-11-27T08:21:21;2.50;99.90
20929;DHT22;21895;47.072;15.132;2022-11-27T08:23:47;2.60;99.90
20929;DHT22;21895;47.072;15.132;2022-11-27T08:26:14;2.70;99.90
20929;DHT22;21895;47.072;15.132;2022-11-27T08:28:41;2.80;99.90
20929;DHT22;21895;47.072;15.132;2022-11-27T08:31:10;2.90;99.90
20929;DHT22;21895;47.072;15.132;2022-11-27T08:33:37;3.10;99.90
20929;DHT22;21895;47.072;15.132;2022-11-27T08:36:05;3.10;99.90
20929;DHT22;21895;47.072;15.132;2022-11-27T08:38:36;3.20;99.90
20929;DHT22;21895;47.072;15.132;2022-11-27T08:41:04;3.30;99.90
20929;DHT22;21895;47.072;15.132;2022-11-27T08:43:31;3.40;99.90
20929;DHT22;21895;47.072;15.132;2022-11-27T08:45:58;3.60;99.90
20929;DHT22;21895;47.072;15.132;2022-11-27T08:48:28;3.80;99.90
20929;DHT22;21895;47.072;15.132;2022-11-27T08:50:55;4.00;99.90
20929;DHT22;21895;47.072;15.132;2022-11-27T08:53:21;4.10;99.90
20929;DHT22;21895;47.072;15.132;2022-11-27T08:55:48;4.20;99.90
20929;DHT22;21895;47.072;15.132;2022-11-27T08:58:14;4.40;99.90
20929;DHT22;21895;47.072;15.132;2022-11-27T09:00:41;4.40;99.90
20929;DHT22;21895;47.072;15.132;2022-11-27T09:03:10;4.50;99.90
20929;DHT22;21895;47.072;15.132;2022-11-27T09:05:41;4.50;99.90
20929;DHT22;21895;47.072;15.132;2022-11-27T09:08:09;4.70;99.90
20929;DHT22;21895;47.072;15.132;2022-11-27T09:10:38;4.80;99.90
20929;DHT22;21895;47.072;15.132;2022-11-27T09:13:04;4.90;99.90
20929;DHT22;21895;47.072;15.132;2022-11-27T09:15:31;5.00;99.90
20929;DHT22;21895;47.072;15.132;2022-11-27T09:17:57;5.10;99.90
20929;DHT22;21895;47.072;15.132;2022-11-27T09:20:24;5.30;99.90
20929;DHT22;21895;47.072;15.132;2022-11-27T09:22:50;5.40;99.90
20929;DHT22;21895;47.072;15.132;2022-11-27T09:25:17;5.40;99.90
20929;DHT22;21895;47.072;15.132;2022-11-27T09:27:43;5.40;99.90
20929;DHT22;21895;47.072;15.132;2022-11-27T09:30:10;5.50;99.90
20929;DHT22;21895;47.072;15.132;2022-11-27T09:32:37;5.60;99.90
20929;DHT22;21895;47.072;15.132;2022-11-27T09:35:04;5.70;99.90
20929;DHT22;21895;47.072;15.132;2022-11-27T09:37:31;5.80;99.90
20929;DHT22;21895;47.072;15.132;2022-11-27T09:39:57;5.80;99.90
20929;DHT22;21895;47.072;15.132;2022-11-27T09:42:58;6.00;99.90
20929;DHT22;21895;47.072;15.132;2022-11-27T09:45:42;6.10;99.90
20929;DHT22;21895;47.072;15.132;2022-11-27T09:48:36;6.20;99.90
20929;DHT22;21895;47.072;15.132;2022-11-27T09:51:10;6.30;99.90
20929;DHT22;21895;47.072;15.132;2022-11-27T09:53:54;6.40;99.90
20929;DHT22;21895;47.072;15.132;2022-11-27T09:56:25;6.50;99.90
20929;DHT22;21895;47.072;15.132;2022-11-27T09:58:58;6.60;99.90
20929;DHT22;21895;47.072;15.132;2022-11-27T10:01:31;6.70;99.90
20929;DHT22;21895;47.072;15.132;2022-11-27T10:04:13;6.70;99.90
20929;DHT22;21895;47.072;15.132;2022-11-27T10:10:02;6.80;99.90
20929;DHT22;21895;47.072;15.132;2022-11-27T10:16:24;7.00;99.90
20929;DHT22;21895;47.072;15.132;2022-11-27T10:19:07;7.10;99.90
20929;DHT22;21895;47.072;15.132;2022-11-27T10:25:16;7.30;99.90
20929;DHT22;21895;47.072;15.132;2022-11-27T10:28:27;7.30;99.90
20929;DHT22;21895;47.072;15.132;2022-11-27T10:34:46;7.50;99.90
20929;DHT22;21895;47.072;15.132;2022-11-27T10:38:13;7.60;99.90
20929;DHT22;21895;47.072;15.132;2022-11-27T10:41:35;7.70;99.90
20929;DHT22;21895;47.072;15.132;2022-11-27T10:44:44;7.80;99.90
20929;DHT22;21895;47.072;15.132;2022-11-27T10:48:02;8.00;99.90
20929;DHT22;21895;47.072;15.132;2022-11-27T10:50:29;8.00;99.90
20929;DHT22;21895;47.072;15.132;2022-11-27T10:52:59;8.00;99.90
20929;DHT22;21895;47.072;15.132;2022-11-27T10:56:03;8.10;99.90
20929;DHT22;21895;47.072;15.132;2022-11-27T11:01:42;8.10;99.90
20929;DHT22;21895;47.072;15.132;2022-11-27T11:04:19;8.10;99.90
20929;DHT22;21895;47.072;15.132;2022-11-27T11:07:26;8.20;99.90
20929;DHT22;21895;47.072;15.132;2022-11-27T11:09:54;8.40;99.90
20929;DHT22;21895;47.072;15.132;2022-11-27T11:12:22;8.50;99.60
20929;DHT22;21895;47.072;15.132;2022-11-27T11:14:53;8.40;99.60
20929;DHT22;21895;47.072;15.132;2022-11-27T11:17:26;8.40;99.50
20929;DHT22;21895;47.072;15.132;2022-11-27T11:19:59;8.30;99.90
20929;DHT22;21895;47.072;15.132;2022-11-27T11:22:27;8.30;99.90
20929;DHT22;21895;47.072;15.132;2022-11-27T11:24:54;8.30;99.80
20929;DHT22;21895;47.072;15.132;2022-11-27T11:27:28;8.50;99.50
20929;DHT22;21895;47.072;15.132;2022-11-27T11:30:02;8.40;99.50
20929;DHT22;21895;47.072;15.132;2022-11-27T11:32:39;8.40;99.50
20929;DHT22;21895;47.072;15.132;2022-11-27T11:38:15;8.60;99.30
20929;DHT22;21895;47.072;15.132;2022-11-27T11:40:43;8.60;99.40
20929;DHT22;21895;47.072;15.132;2022-11-27T11:43:30;8.60;99.30
20929;DHT22;21895;47.072;15.132;2022-11-27T11:46:05;8.50;99.10
20929;DHT22;21895;47.072;15.132;2022-11-27T11:49:01;8.50;99.10
20929;DHT22;21895;47.072;15.132;2022-11-27T11:52:53;8.60;99.00
20929;DHT22;21895;47.072;15.132;2022-11-27T11:56:44;8.50;99.10
20929;DHT22;21895;47.072;15.132;2022-11-27T11:59:41;8.40;99.30
20929;DHT22;21895;47.072;15.132;2022-11-27T12:11:13;8.50;99.40
20929;DHT22;21895;47.072;15.132;2022-11-27T12:15:41;8.60;99.10
20929;DHT22;21895;47.072;15.132;2022-11-27T12:18:55;8.60;98.90
20929;DHT22;21895;47.072;15.132;2022-11-27T12:25:21;8.50;99.20
20929;DHT22;21895;47.072;15.132;2022-11-27T12:32:01;8.50;99.30
20929;DHT22;21895;47.072;15.132;2022-11-27T12:36:21;8.60;98.50
20929;DHT22;21895;47.072;15.132;2022-11-27T12:40:50;8.50;99.00
20929;DHT22;21895;47.072;15.132;2022-11-27T12:43:37;8.60;98.70
20929;DHT22;21895;47.072;15.132;2022-11-27T12:46:15;8.60;98.80
20929;DHT22;21895;47.072;15.132;2022-11-27T12:48:56;8.50;98.90
20929;DHT22;21895;47.072;15.132;2022-11-27T12:51:46;8.50;98.70
20929;DHT22;21895;47.072;15.132;2022-11-27T12:54:28;8.40;98.80
20929;DHT22;21895;47.072;15.132;2022-11-27T12:57:02;8.40;98.90
20929;DHT22;21895;47.072;15.132;2022-11-27T12:59:53;8.50;98.70
20929;DHT22;21895;47.072;15.132;2022-11-27T13:02:48;8.50;98.90
20929;DHT22;21895;47.072;15.132;2022-11-27T13:06:07;8.50;98.70
20929;DHT22;21895;47.072;15.132;2022-11-27T13:08:49;8.50;98.80
20929;DHT22;21895;47.072;15.132;2022-11-27T13:11:29;8.40;98.80
20929;DHT22;21895;47.072;15.132;2022-11-27T13:14:04;8.40;98.90
20929;DHT22;21895;47.072;15.132;2022-11-27T13:16:44;8.30;98.80
20929;DHT22;21895;47.072;15.132;2022-11-27T13:19:38;8.40;98.60
20929;DHT22;21895;47.072;15.132;2022-11-27T13:22:22;8.40;99.00
20929;DHT22;21895;47.072;15.132;2022-11-27T13:24:55;8.40;98.90
20929;DHT22;21895;47.072;15.132;2022-11-27T13:27:27;8.30;98.90
20929;DHT22;21895;47.072;15.132;2022-11-27T13:30:07;8.20;99.30
20929;DHT22;21895;47.072;15.132;2022-11-27T13:32:51;8.20;99.20
20929;DHT22;21895;47.072;15.132;2022-11-27T13:35:42;8.30;99.20
20929;DHT22;21895;47.072;15.132;2022-11-27T13:38:26;8.30;99.00
20929;DHT22;21895;47.072;15.132;2022-11-27T13:40:55;8.20;99.30
20929;DHT22;21895;47.072;15.132;2022-11-27T13:43:42;8.10;99.30
20929;DHT22;21895;47.072;15.132;2022-11-27T13:46:29;8.30;99.30
20929;DHT22;21895;47.072;15.132;2022-11-27T13:49:07;8.10;99.40
20929;DHT22;21895;47.072;15.132;2022-11-27T13:51:36;8.10;99.40
20929;DHT22;21895;47.072;15.132;2022-11-27T13:54:15;8.10;99.20
20929;DHT22;21895;47.072;15.132;2022-11-27T13:56:44;8.10;99.30
20929;DHT22;21895;47.072;15.132;2022-11-27T13:59:20;8.00;99.50
20929;DHT22;21895;47.072;15.132;2022-11-27T14:01:59;7.90;99.70
20929;DHT22;21895;47.072;15.132;2022-11-27T14:04:28;7.80;99.80
20929;DHT22;21895;47.072;15.132;2022-11-27T14:06:59;7.80;99.80
20929;DHT22;21895;47.072;15.132;2022-11-27T14:09:52;7.90;99.80
20929;DHT22;21895;47.072;15.132;2022-11-27T14:12:32;8.00;99.60
20929;DHT22;21895;47.072;15.132;2022-11-27T14:15:20;7.80;99.60
20929;DHT22;21895;47.072;15.132;2022-11-27T14:17:50;7.70;99.80
20929;DHT22;21895;47.072;15.132;2022-11-27T14:20:25;7.60;99.90
20929;DHT22;21895;47.072;15.132;2022-11-27T14:22:56;7.60;99.90
20929;DHT22;21895;47.072;15.132;2022-11-27T14:25:40;7.60;99.90
20929;DHT22;21895;47.072;15.132;2022-11-27T14:28:19;7.50;99.90
20929;DHT22;21895;47.072;15.132;2022-11-27T14:30:53;7.30;99.90
20929;DHT22;21895;47.072;15.132;2022-11-27T14:33:26;7.10;99.90
20929;DHT22;21895;47.072;15.132;2022-11-27T14:35:59;6.90;99.90
20929;DHT22;21895;47.072;15.132;2022-11-27T14:41:22;6.70;99.90
20929;DHT22;21895;47.072;15.132;2022-11-27T14:44:05;6.40;99.90
20929;DHT22;21895;47.072;15.132;2022-11-27T14:46:39;6.20;99.90
20929;DHT22;21895;47.072;15.132;2022-11-27T14:49:18;6.10;99.90
20929;DHT22;21895;47.072;15.132;2022-11-27T14:51:47;6.00;99.90
20929;DHT22;21895;47.072;15.132;2022-11-27T14:54:28;5.80;99.90
20929;DHT22;21895;47.072;15.132;2022-11-27T14:56:58;5.80;99.90
20929;DHT22;21895;47.072;15.132;2022-11-27T14:59:25;5.70;99.90
20929;DHT22;21895;47.072;15.132;2022-11-27T15:05:04;5.40;99.90
20929;DHT22;21895;47.072;15.132;2022-11-27T15:07:33;5.30;99.90
20929;DHT22;21895;47.072;15.132;2022-11-27T15:10:38;5.20;99.90
20929;DHT22;21895;47.072;15.132;2022-11-27T15:13:07;5.30;99.90
20929;DHT22;21895;47.072;15.132;2022-11-27T15:16:53;5.40;99.90
20929;DHT22;21895;47.072;15.132;2022-11-27T15:19:34;5.50;99.90
20929;DHT22;21895;47.072;15.132;2022-11-27T15:22:02;5.40;99.90
20929;DHT22;21895;47.072;15.132;2022-11-27T15:24:38;5.40;99.90
20929;DHT22;21895;47.072;15.132;2022-11-27T15:27:19;5.20;99.90
20929;DHT22;21895;47.072;15.132;2022-11-27T15:30:28;5.10;99.90
20929;DHT22;21895;47.072;15.132;2022-11-27T15:32:55;4.80;99.90
20929;DHT22;21895;47.072;15.132;2022-11-27T15:35:27;4.70;99.90
20929;DHT22;21895;47.072;15.132;2022-11-27T15:37:56;4.50;99.90
20929;DHT22;21895;47.072;15.132;2022-11-27T15:40:35;4.40;99.90
20929;DHT22;21895;47.072;15.132;2022-11-27T15:43:14;4.20;99.90
20929;DHT22;21895;47.072;15.132;2022-11-27T15:45:42;4.00;99.90
20929;DHT22;21895;47.072;15.132;2022-11-27T15:48:16;3.80;99.90
20929;DHT22;21895;47.072;15.132;2022-11-27T15:50:44;3.70;99.90
20929;DHT22;21895;47.072;15.132;2022-11-27T15:53:17;3.60;99.90
20929;DHT22;21895;47.072;15.132;2022-11-27T15:55:44;3.50;99.90
20929;DHT22;21895;47.072;15.132;2022-11-27T15:58:10;3.40;99.90
20929;DHT22;21895;47.072;15.132;2022-11-27T16:00:37;3.30;99.90
20929;DHT22;21895;47.072;15.132;2022-11-27T16:03:04;3.30;99.90
20929;DHT22;21895;47.072;15.132;2022-11-27T16:05:31;3.30;99.90
20929;DHT22;21895;47.072;15.132;2022-11-27T16:07:57;3.30;99.90
20929;DHT22;21895;47.072;15.132;2022-11-27T16:10:24;3.30;99.90
20929;DHT22;21895;47.072;15.132;2022-11-27T16:12:50;3.10;99.90
20929;DHT22;21895;47.072;15.132;2022-11-27T16:15:19;3.10;99.90
20929;DHT22;21895;47.072;15.132;2022-11-27T16:17:49;3.00;99.90
20929;DHT22;21895;47.072;15.132;2022-11-27T16:20:15;3.00;99.90
20929;DHT22;21895;47.072;15.132;2022-11-27T16:22:42;2.90;99.90
20929;DHT22;21895;47.072;15.132;2022-11-27T16:25:08;2.90;99.90
20929;DHT22;21895;47.072;15.132;2022-11-27T16:27:35;2.90;99.90
20929;DHT22;21895;47.072;15.132;2022-11-27T16:30:01;2.90;99.90
20929;DHT22;21895;47.072;15.132;2022-11-27T16:32:28;2.90;99.90
20929;DHT22;21895;47.072;15.132;2022-11-27T16:34:55;2.80;99.90
20929;DHT22;21895;47.072;15.132;2022-11-27T16:37:21;2.70;99.90
20929;DHT22;21895;47.072;15.132;2022-11-27T16:39:48;2.60;99.90
20929;DHT22;21895;47.072;15.132;2022-11-27T16:42:15;2.60;99.90
20929;DHT22;21895;47.072;15.132;2022-11-27T16:44:41;2.70;99.90
20929;DHT22;21895;47.072;15.132;2022-11-27T16:47:09;2.70;99.90
20929;DHT22;21895;47.072;15.132;2022-11-27T16:49:36;2.70;99.90
20929;DHT22;21895;47.072;15.132;2022-11-27T16:52:03;2.70;99.90
20929;DHT22;21895;47.072;15.132;2022-11-27T16:54:29;2.60;99.90
20929;DHT22;21895;47.072;15.132;2022-11-27T16:56:56;2.60;99.90
20929;DHT22;21895;47.072;15.132;2022-11-27T16:59:22;2.60;99.90
20929;DHT22;21895;47.072;15.132;2022-11-27T17:01:49;2.60;99.90
20929;DHT22;21895;47.072;15.132;2022-11-27T17:04:17;2.70;99.90
20929;DHT22;21895;47.072;15.132;2022-11-27T17:06:47;2.60;99.90
20929;DHT22;21895;47.072;15.132;2022-11-27T17:09:14;2.60;99.90
20929;DHT22;21895;47.072;15.132;2022-11-27T17:11:44;2.70;99.90
20929;DHT22;21895;47.072;15.132;2022-11-27T17:14:15;2.80;99.90
20929;DHT22;21895;47.072;15.132;2022-11-27T17:16:43;2.90;99.90